createdAt,value
2023-01-06T00:01:23.194Z,7.14
2023-01-06T00:03:51.761Z,7.12
2023-01-06T00:06:22.849Z,7.14
2023-01-06T00:08:49.735Z,7.12
2023-01-06T00:11:16.754Z,7.11
2023-01-06T00:13:43.636Z,7.10
2023-01-06T00:16:17.081Z,7.06
2023-01-06T00:18:44.597Z,7.04
2023-01-06T00:21:13.762Z,7.02
2023-01-06T00:23:40.867Z,6.99
2023-01-06T00:26:10.039Z,6.94
2023-01-06T00:28:37.412Z,6.89
2023-01-06T00:31:13.847Z,6.76
2023-01-06T00:33:41.686Z,6.80
2023-01-06T00:36:10.252Z,6.77
2023-01-06T00:38:38.097Z,6.74
2023-01-06T00:41:30.139Z,6.64
2023-01-06T00:43:58.199Z,6.66
2023-01-06T00:46:29.156Z,6.63
2023-01-06T00:49:06.957Z,6.58
2023-01-06T00:51:39.925Z,6.57
2023-01-06T00:54:12.561Z,6.51
2023-01-06T00:56:42.693Z,6.47
2023-01-06T00:59:11.644Z,6.45
2023-01-06T01:01:39.175Z,6.44
2023-01-06T01:04:06.805Z,6.45
2023-01-06T01:06:34.182Z,6.39
2023-01-06T01:09:01.345Z,6.45
2023-01-06T01:11:47.543Z,6.43
2023-01-06T01:14:17.178Z,6.47
2023-01-06T01:16:44.578Z,6.48
2023-01-06T01:19:12.845Z,6.50
2023-01-06T01:21:40.320Z,6.52
2023-01-06T01:24:07.658Z,6.51
2023-01-06T01:26:34.788Z,6.54
2023-01-06T01:29:02.023Z,6.58
2023-01-06T01:31:30.545Z,6.60
2023-01-06T01:33:57.604Z,6.62
2023-01-06T01:36:24.643Z,6.65
2023-01-06T01:38:51.523Z,6.67
2023-01-06T01:41:22.518Z,6.71
2023-01-06T01:44:49.345Z,6.75
2023-01-06T01:47:28.816Z,6.78
2023-01-06T01:50:17.752Z,6.77
2023-01-06T01:52:47.267Z,6.84
2023-01-06T01:55:15.102Z,6.85
2023-01-06T01:57:58.542Z,6.86
2023-01-06T02:00:26.389Z,6.89
2023-01-06T02:02:54.807Z,6.93
2023-01-06T02:05:25.973Z,6.97
2023-01-06T02:07:57.309Z,7.02
2023-01-06T02:10:24.725Z,7.01
2023-01-06T02:12:57.348Z,7.08
2023-01-06T02:15:31.163Z,7.11
2023-01-06T02:18:08.075Z,7.13
2023-01-06T02:21:09.798Z,7.17
2023-01-06T02:24:06.618Z,7.20
2023-01-06T02:27:12.081Z,7.23
2023-01-06T02:30:20.567Z,7.23
2023-01-06T02:33:05.529Z,7.25
2023-01-06T02:36:06.092Z,7.26
2023-01-06T02:38:54.391Z,7.28
2023-01-06T02:41:47.501Z,7.30
2023-01-06T02:44:27.920Z,7.35
2023-01-06T02:47:19.868Z,7.36
2023-01-06T02:50:20.229Z,7.39
2023-01-06T02:52:54.467Z,7.41
2023-01-06T02:55:36.811Z,7.42
2023-01-06T02:58:18.568Z,7.41
2023-01-06T03:00:57.477Z,7.43
2023-01-06T03:03:29.295Z,7.45
2023-01-06T03:06:05.785Z,7.48
2023-01-06T03:08:34.185Z,7.51
2023-01-06T03:11:02.823Z,7.54
2023-01-06T03:13:47.933Z,7.58
2023-01-06T03:16:16.129Z,7.61
2023-01-06T03:18:45.413Z,7.65
2023-01-06T03:21:17.198Z,7.69
2023-01-06T03:23:46.081Z,7.72
2023-01-06T03:26:13.574Z,7.75
2023-01-06T03:28:40.752Z,7.78
2023-01-06T03:31:52.896Z,7.78
2023-01-06T03:34:50.482Z,7.77
2023-01-06T03:37:32.697Z,7.79
2023-01-06T03:40:41.271Z,7.79
2023-01-06T03:43:30.475Z,7.76
2023-01-06T03:46:24.341Z,7.78
2023-01-06T03:49:09.295Z,7.79
2023-01-06T03:52:07.126Z,7.82
2023-01-06T03:54:59.974Z,7.85
2023-01-06T03:57:54.454Z,7.86
2023-01-06T04:00:27.502Z,7.85
2023-01-06T04:03:01.706Z,7.83
2023-01-06T04:05:29.534Z,7.86
2023-01-06T04:07:58.761Z,7.87
2023-01-06T04:10:26.760Z,7.89
2023-01-06T04:12:56.914Z,7.92
2023-01-06T04:15:29.476Z,7.94
2023-01-06T04:17:57.591Z,7.94
2023-01-06T04:20:28.929Z,7.97
2023-01-06T04:23:01.727Z,7.97
2023-01-06T04:25:34.056Z,7.97
2023-01-06T04:28:09.070Z,7.98
2023-01-06T04:30:36.064Z,8.01
2023-01-06T04:33:03.439Z,8.03
2023-01-06T04:35:30.331Z,8.06
2023-01-06T04:38:03.269Z,8.01
2023-01-06T04:40:30.174Z,8.10
2023-01-06T04:43:05.632Z,8.11
2023-01-06T04:45:36.213Z,8.12
2023-01-06T04:48:03.118Z,8.13
2023-01-06T04:50:30.087Z,8.15
2023-01-06T04:52:56.987Z,8.15
2023-01-06T04:55:24.089Z,8.15
2023-01-06T04:57:51.260Z,8.15
2023-01-06T05:00:18.881Z,8.14
2023-01-06T05:02:46.212Z,8.13
2023-01-06T05:05:13.953Z,8.13
2023-01-06T05:07:40.849Z,8.10
2023-01-06T05:10:10.195Z,8.08
2023-01-06T05:12:37.194Z,8.06
2023-01-06T05:15:04.667Z,8.06
2023-01-06T05:17:31.558Z,8.07
2023-01-06T05:19:58.488Z,8.08
2023-01-06T05:22:25.370Z,8.09
2023-01-06T05:24:52.257Z,8.10
2023-01-06T05:27:19.145Z,8.11
2023-01-06T05:29:46.038Z,8.12
2023-01-06T05:32:12.935Z,8.12
2023-01-06T05:34:39.820Z,8.12
2023-01-06T05:37:06.720Z,8.13
2023-01-06T05:39:33.599Z,8.14
2023-01-06T05:42:00.481Z,8.13
2023-01-06T05:44:27.345Z,8.13
2023-01-06T05:46:54.240Z,8.14
2023-01-06T05:49:21.121Z,8.15
2023-01-06T05:51:48.763Z,8.17
2023-01-06T05:54:15.778Z,8.17
2023-01-06T05:56:42.668Z,8.18
2023-01-06T05:59:09.583Z,8.21
2023-01-06T06:01:36.528Z,8.23
2023-01-06T06:04:03.487Z,8.21
2023-01-06T06:06:31.024Z,8.27
2023-01-06T06:08:58.625Z,8.31
2023-01-06T06:11:25.611Z,8.32
2023-01-06T06:13:55.274Z,8.34
2023-01-06T06:16:25.644Z,8.37
2023-01-06T06:18:56.250Z,8.42
2023-01-06T06:21:29.456Z,8.46
2023-01-06T06:23:58.290Z,8.53
2023-01-06T06:26:25.763Z,8.58
2023-01-06T06:28:52.815Z,8.55
2023-01-06T06:31:23.591Z,8.62
2023-01-06T06:33:52.961Z,8.57
2023-01-06T06:36:20.463Z,8.52
2023-01-06T06:38:49.974Z,8.55
2023-01-06T06:41:18.451Z,8.53
2023-01-06T06:43:45.586Z,8.50
2023-01-06T06:46:12.666Z,8.46
2023-01-06T06:48:39.785Z,8.41
2023-01-06T06:51:16.932Z,8.36
2023-01-06T06:53:45.006Z,8.33
2023-01-06T06:56:13.584Z,8.26
2023-01-06T06:58:41.019Z,8.22
2023-01-06T07:01:16.945Z,8.16
2023-01-06T07:03:44.030Z,8.12
2023-01-06T07:06:15.131Z,8.10
2023-01-06T07:08:46.724Z,8.06
2023-01-06T07:11:13.925Z,8.05
2023-01-06T07:13:40.951Z,8.02
2023-01-06T07:16:08.474Z,8.00
2023-01-06T07:18:35.489Z,8.03
2023-01-06T07:21:02.445Z,8.00
2023-01-06T07:23:30.502Z,8.10
2023-01-06T07:25:59.756Z,8.09
2023-01-06T07:28:29.061Z,8.11
2023-01-06T07:30:56.040Z,8.14
2023-01-06T07:33:23.367Z,8.17
2023-01-06T07:35:55.413Z,8.21
2023-01-06T07:38:23.255Z,8.24
2023-01-06T07:40:50.396Z,8.23
2023-01-06T07:43:17.305Z,8.25
2023-01-06T07:45:48.001Z,8.29
2023-01-06T07:48:15.257Z,8.32
2023-01-06T07:50:42.177Z,8.36
2023-01-06T07:53:09.749Z,8.39
2023-01-06T07:55:36.688Z,8.41
2023-01-06T07:58:09.839Z,8.38
2023-01-06T08:00:37.253Z,8.38
2023-01-06T08:03:06.834Z,8.41
2023-01-06T08:05:36.332Z,8.47
2023-01-06T08:08:03.224Z,8.49
2023-01-06T08:10:30.081Z,8.52
2023-01-06T08:12:56.941Z,8.56
2023-01-06T08:15:23.812Z,8.58
2023-01-06T08:17:54.776Z,8.49
2023-01-06T08:20:22.770Z,8.56
2023-01-06T08:22:49.804Z,8.59
2023-01-06T08:25:16.769Z,8.60
2023-01-06T08:27:43.640Z,8.62
2023-01-06T08:30:11.427Z,8.64
2023-01-06T08:32:38.318Z,8.63
2023-01-06T08:35:05.564Z,8.54
2023-01-06T08:37:32.462Z,8.64
2023-01-06T08:39:59.360Z,8.61
2023-01-06T08:42:26.323Z,8.66
2023-01-06T08:44:53.213Z,8.64
2023-01-06T08:47:20.104Z,8.71
2023-01-06T08:49:47.002Z,8.72
2023-01-06T08:52:14.029Z,8.77
2023-01-06T08:54:40.903Z,8.79
2023-01-06T08:57:09.065Z,8.79
2023-01-06T08:59:35.958Z,8.85
2023-01-06T09:02:02.925Z,8.86
2023-01-06T09:04:29.863Z,8.89
2023-01-06T09:06:57.588Z,8.91
2023-01-06T09:09:24.741Z,8.93
2023-01-06T09:11:51.603Z,8.95
2023-01-06T09:14:18.566Z,8.96
2023-01-06T09:16:47.693Z,9.02
2023-01-06T09:19:16.676Z,9.06
2023-01-06T09:21:43.559Z,9.12
2023-01-06T09:24:14.151Z,9.16
2023-01-06T09:26:41.271Z,9.22
2023-01-06T09:29:08.140Z,9.25
2023-01-06T09:31:35.115Z,9.27
2023-01-06T09:34:01.990Z,9.28
2023-01-06T09:36:28.859Z,9.32
2023-01-06T09:38:55.768Z,9.34
2023-01-06T09:42:10.569Z,9.37
2023-01-06T09:44:52.641Z,9.41
2023-01-06T09:47:35.954Z,9.44
2023-01-06T09:50:41.574Z,9.48
2023-01-06T09:53:25.979Z,9.51
2023-01-06T09:55:58.104Z,9.53
2023-01-06T09:58:33.019Z,9.59
2023-01-06T10:01:07.224Z,9.63
2023-01-06T10:03:34.293Z,9.74
2023-01-06T10:06:33.493Z,9.77
2023-01-06T10:09:30.381Z,9.83
2023-01-06T10:12:43.606Z,9.86
2023-01-06T10:15:29.464Z,9.85
2023-01-06T10:18:42.372Z,9.95
2023-01-06T10:21:12.314Z,10.00
2023-01-06T10:24:03.311Z,10.01
2023-01-06T10:26:32.224Z,10.09
2023-01-06T10:29:12.271Z,10.12
2023-01-06T10:31:43.930Z,10.21
2023-01-06T10:34:24.813Z,10.29
2023-01-06T10:37:10.152Z,10.36
2023-01-06T10:39:39.763Z,10.42
2023-01-06T10:42:48.542Z,10.47
2023-01-06T10:45:15.573Z,10.55
2023-01-06T10:47:43.746Z,10.56
2023-01-06T10:50:16.711Z,10.65
2023-01-06T10:52:45.505Z,10.66
2023-01-06T10:55:31.874Z,10.77
2023-01-06T10:58:07.474Z,10.80
2023-01-06T11:00:34.937Z,10.84
2023-01-06T11:03:31.339Z,10.83
2023-01-06T11:06:21.465Z,10.94
2023-01-06T11:08:48.404Z,11.00
2023-01-06T11:11:27.721Z,11.05
2023-01-06T11:13:59.867Z,11.09
2023-01-06T11:16:31.703Z,11.17
2023-01-06T11:19:05.330Z,11.22
2023-01-06T11:21:49.026Z,11.25
2023-01-06T11:24:17.861Z,11.29
2023-01-06T11:26:53.832Z,11.33
2023-01-06T11:29:35.341Z,11.38
2023-01-06T11:32:27.189Z,11.45
2023-01-06T11:34:59.188Z,11.48
2023-01-06T11:37:37.578Z,11.54
2023-01-06T11:40:24.941Z,11.58
2023-01-06T11:42:59.513Z,11.62
2023-01-06T11:45:44.744Z,11.66
2023-01-06T11:48:21.389Z,11.69
2023-01-06T11:51:04.423Z,11.74
2023-01-06T11:53:33.434Z,11.78
2023-01-06T11:56:02.576Z,11.81
2023-01-06T11:58:57.010Z,11.84
2023-01-06T12:01:43.638Z,11.89
2023-01-06T12:04:36.491Z,11.91
2023-01-06T12:07:26.539Z,11.95
2023-01-06T12:09:55.731Z,11.98
2023-01-06T12:12:27.385Z,12.01
2023-01-06T12:14:55.889Z,12.05
2023-01-06T12:17:44.116Z,12.07
2023-01-06T12:20:41.497Z,12.13
2023-01-06T12:23:16.166Z,12.18
2023-01-06T12:25:47.349Z,12.22
2023-01-06T12:28:34.163Z,12.24
2023-01-06T12:31:22.677Z,12.25
2023-01-06T12:34:02.292Z,12.26
2023-01-06T12:36:45.873Z,12.28
2023-01-06T12:39:32.183Z,12.30
2023-01-06T12:42:09.294Z,12.33
2023-01-06T12:44:54.537Z,12.38
2023-01-06T12:47:37.920Z,12.40
2023-01-06T12:50:47.747Z,12.42
2023-01-06T12:53:25.753Z,12.43
2023-01-06T12:56:36.371Z,12.44
2023-01-06T12:59:46.723Z,12.45
2023-01-06T13:02:55.919Z,12.45
2023-01-06T13:06:13.920Z,12.47
2023-01-06T13:09:03.107Z,12.48
2023-01-06T13:12:10.653Z,12.53
2023-01-06T13:15:07.850Z,12.57
2023-01-06T13:17:44.716Z,12.60
2023-01-06T13:20:44.547Z,12.58
2023-01-06T13:23:19.204Z,12.67
2023-01-06T13:26:37.857Z,12.73
2023-01-06T13:29:35.650Z,12.78
2023-01-06T13:32:27.476Z,12.81
2023-01-06T13:35:16.587Z,12.86
2023-01-06T13:38:30.709Z,12.89
2023-01-06T13:41:01.518Z,12.93
2023-01-06T13:43:34.023Z,12.97
2023-01-06T13:46:09.362Z,13.02
2023-01-06T13:48:44.233Z,13.05
2023-01-06T13:51:13.666Z,13.05
2023-01-06T13:53:44.324Z,13.11
2023-01-06T13:56:14.162Z,13.16
2023-01-06T13:58:49.464Z,13.19
2023-01-06T14:01:19.449Z,13.23
2023-01-06T14:03:49.509Z,13.27
2023-01-06T14:06:22.249Z,13.30
2023-01-06T14:09:00.542Z,13.32
2023-01-06T14:11:30.978Z,13.36
2023-01-06T14:14:01.087Z,13.39
2023-01-06T14:16:42.817Z,13.42
2023-01-06T14:19:38.881Z,13.44
2023-01-06T14:22:21.873Z,13.46
2023-01-06T14:25:08.888Z,13.49
2023-01-06T14:27:47.887Z,13.52
2023-01-06T14:30:22.763Z,13.52
2023-01-06T14:32:49.527Z,13.55
2023-01-06T14:35:21.134Z,13.56
2023-01-06T14:37:54.496Z,13.59
2023-01-06T14:40:34.021Z,13.59
2023-01-06T14:43:23.150Z,13.61
2023-01-06T14:45:51.105Z,13.63
2023-01-06T14:48:22.811Z,13.63
2023-01-06T14:50:56.112Z,13.65
2023-01-06T14:53:42.836Z,13.63
2023-01-06T14:56:22.769Z,13.54
2023-01-06T14:58:49.676Z,13.61
2023-01-06T15:01:26.759Z,13.60
2023-01-06T15:04:00.031Z,13.60
2023-01-06T15:06:28.576Z,13.60
2023-01-06T15:09:18.908Z,13.58
2023-01-06T15:11:46.325Z,13.57
2023-01-06T15:14:28.218Z,13.50
2023-01-06T15:16:59.297Z,13.49
2023-01-06T15:19:26.481Z,13.46
2023-01-06T15:21:54.453Z,13.41
2023-01-06T15:24:28.892Z,13.37
2023-01-06T15:27:04.484Z,13.32
2023-01-06T15:29:31.588Z,13.29
2023-01-06T15:31:59.222Z,13.24
2023-01-06T15:34:42.762Z,13.13
2023-01-06T15:37:18.878Z,13.11
2023-01-06T15:39:46.344Z,13.08
2023-01-06T15:42:15.597Z,13.04
2023-01-06T15:45:00.722Z,12.98
2023-01-06T15:47:35.636Z,12.90
2023-01-06T15:50:08.211Z,12.90
2023-01-06T15:52:46.260Z,12.84
2023-01-06T15:55:32.042Z,12.80
2023-01-06T15:58:08.309Z,12.75
2023-01-06T16:00:48.160Z,12.72
2023-01-06T16:03:24.936Z,12.73
2023-01-06T16:06:00.179Z,12.75
2023-01-06T16:08:30.690Z,12.74
2023-01-06T16:11:16.882Z,12.74
2023-01-06T16:13:58.028Z,12.73
2023-01-06T16:16:32.935Z,12.71
2023-01-06T16:19:13.861Z,12.73
2023-01-06T16:21:43.218Z,12.72
2023-01-06T16:24:24.270Z,12.72
2023-01-06T16:26:58.896Z,12.69
2023-01-06T16:29:35.582Z,12.69
2023-01-06T16:32:35.151Z,12.67
2023-01-06T16:35:09.569Z,12.62
2023-01-06T16:37:36.461Z,12.62
2023-01-06T16:40:04.037Z,12.60
2023-01-06T16:42:44.686Z,12.58
2023-01-06T16:45:42.723Z,12.54
2023-01-06T16:48:15.226Z,12.49
2023-01-06T16:50:56.396Z,12.44
2023-01-06T16:53:23.466Z,12.45
2023-01-06T16:55:55.031Z,12.43
2023-01-06T16:58:28.963Z,12.37
2023-01-06T17:00:58.682Z,12.36
2023-01-06T17:03:31.638Z,12.35
2023-01-06T17:05:58.549Z,12.33
2023-01-06T17:08:30.113Z,12.32
2023-01-06T17:10:59.957Z,12.30
2023-01-06T17:13:38.930Z,12.27
2023-01-06T17:16:16.883Z,12.24
2023-01-06T17:18:50.405Z,12.21
2023-01-06T17:21:21.731Z,12.16
2023-01-06T17:23:58.281Z,12.12
2023-01-06T17:26:26.943Z,12.09
2023-01-06T17:28:57.101Z,12.06
2023-01-06T17:31:40.943Z,12.02
2023-01-06T17:34:19.264Z,11.99
2023-01-06T17:36:48.268Z,11.97
2023-01-06T17:39:44.781Z,11.94
2023-01-06T17:42:11.541Z,11.93
2023-01-06T17:44:51.982Z,11.93
2023-01-06T17:47:19.983Z,11.89
2023-01-06T17:49:51.350Z,11.87
2023-01-06T17:52:28.290Z,11.88
2023-01-06T17:55:34.002Z,11.88
2023-01-06T17:58:01.118Z,11.84
2023-01-06T18:00:34.999Z,11.84
2023-01-06T18:03:09.385Z,11.83
2023-01-06T18:05:36.124Z,11.85
2023-01-06T18:08:05.761Z,11.83
2023-01-06T18:10:35.538Z,11.82
2023-01-06T18:13:32.332Z,11.79
2023-01-06T18:16:01.495Z,11.78
2023-01-06T18:18:39.808Z,11.78
2023-01-06T18:21:15.979Z,11.77
2023-01-06T18:23:51.751Z,11.75
2023-01-06T18:26:40.687Z,11.74
2023-01-06T18:29:19.685Z,11.71
2023-01-06T18:31:50.204Z,11.72
2023-01-06T18:34:30.933Z,11.72
2023-01-06T18:37:00.373Z,11.73
2023-01-06T18:39:45.951Z,11.70
2023-01-06T18:42:25.872Z,11.70
2023-01-06T18:45:08.084Z,11.69
2023-01-06T18:47:38.592Z,11.67
2023-01-06T18:50:28.919Z,11.65
2023-01-06T18:53:02.164Z,11.64
2023-01-06T18:55:41.445Z,11.63
2023-01-06T18:58:16.712Z,11.63
2023-01-06T19:01:13.285Z,11.62
2023-01-06T19:04:08.212Z,11.63
2023-01-06T19:06:38.964Z,11.64
2023-01-06T19:09:24.338Z,11.62
2023-01-06T19:12:00.096Z,11.64
2023-01-06T19:14:30.212Z,11.64
2023-01-06T19:16:58.761Z,11.60
2023-01-06T19:19:37.836Z,11.65
2023-01-06T19:22:34.068Z,11.61
2023-01-06T19:25:32.310Z,11.63
2023-01-06T19:28:03.393Z,11.61
2023-01-06T19:30:38.055Z,11.60
2023-01-06T19:33:19.358Z,11.55
2023-01-06T19:35:46.729Z,11.57
2023-01-06T19:38:40.883Z,11.53
2023-01-06T19:41:18.224Z,11.41
2023-01-06T19:43:45.219Z,11.50
2023-01-06T19:46:31.390Z,11.45
2023-01-06T19:48:59.859Z,11.41
2023-01-06T19:51:35.687Z,11.38
2023-01-06T19:54:11.582Z,11.38
2023-01-06T19:56:42.058Z,11.33
2023-01-06T19:59:34.226Z,11.26
2023-01-06T20:02:10.432Z,11.30
2023-01-06T20:04:37.430Z,11.28
2023-01-06T20:07:04.557Z,11.27
2023-01-06T20:09:33.615Z,11.23
2023-01-06T20:12:01.028Z,11.17
2023-01-06T20:14:28.001Z,11.19
2023-01-06T20:16:55.022Z,11.15
2023-01-06T20:19:21.947Z,11.15
2023-01-06T20:21:48.998Z,11.08
2023-01-06T20:24:15.957Z,11.13
2023-01-06T20:26:43.179Z,11.03
2023-01-06T20:29:10.157Z,11.11
2023-01-06T20:31:37.206Z,11.03
2023-01-06T20:34:04.376Z,11.08
2023-01-06T20:36:31.239Z,11.06
2023-01-06T20:38:58.209Z,11.03
2023-01-06T20:41:25.085Z,11.02
2023-01-06T20:43:51.991Z,11.03
2023-01-06T20:46:19.010Z,11.00
2023-01-06T20:48:47.706Z,10.97
2023-01-06T20:51:14.683Z,10.92
2023-01-06T20:53:41.622Z,10.87
2023-01-06T20:56:08.655Z,10.86
2023-01-06T20:58:36.125Z,10.85
2023-01-06T21:01:03.183Z,10.81
2023-01-06T21:03:30.087Z,10.71
2023-01-06T21:05:56.995Z,10.73
2023-01-06T21:08:23.886Z,10.71
2023-01-06T21:10:50.775Z,10.70
2023-01-06T21:13:17.648Z,10.65
2023-01-06T21:15:44.595Z,10.63
2023-01-06T21:18:11.468Z,10.59
2023-01-06T21:20:38.363Z,10.52
2023-01-06T21:23:05.801Z,10.53
2023-01-06T21:25:32.701Z,10.50
2023-01-06T21:27:59.589Z,10.48
2023-01-06T21:30:28.264Z,10.44
2023-01-06T21:32:55.245Z,10.43
2023-01-06T21:35:22.159Z,10.41
2023-01-06T21:37:49.069Z,10.40
2023-01-06T21:40:16.023Z,10.37
2023-01-06T21:43:01.417Z,10.21
2023-01-06T21:45:28.893Z,10.30
2023-01-06T21:47:56.069Z,10.24
2023-01-06T21:50:25.398Z,10.31
2023-01-06T21:52:54.021Z,10.30
2023-01-06T21:55:20.925Z,10.30
2023-01-06T21:57:48.387Z,10.22
2023-01-06T22:00:15.810Z,10.29
2023-01-06T22:02:42.914Z,10.33
2023-01-06T22:05:09.874Z,10.34
2023-01-06T22:07:41.319Z,10.37
2023-01-06T22:10:10.873Z,10.40
2023-01-06T22:12:39.756Z,10.45
2023-01-06T22:15:08.537Z,10.46
2023-01-06T22:17:35.478Z,10.48
2023-01-06T22:20:03.519Z,10.51
2023-01-06T22:22:30.736Z,10.50
2023-01-06T22:24:58.026Z,10.53
2023-01-06T22:27:24.876Z,10.48
2023-01-06T22:29:51.783Z,10.57
2023-01-06T22:32:18.643Z,10.57
2023-01-06T22:34:45.532Z,10.58
2023-01-06T22:37:12.405Z,10.60
2023-01-06T22:39:39.262Z,10.59
2023-01-06T22:42:06.152Z,10.58
2023-01-06T22:44:33.008Z,10.57
2023-01-06T22:47:00.463Z,10.58
2023-01-06T22:49:27.348Z,10.58
2023-01-06T22:51:54.208Z,10.59
2023-01-06T22:54:21.099Z,10.58
2023-01-06T22:56:47.968Z,10.58
2023-01-06T22:59:14.884Z,10.56
2023-01-06T23:01:41.892Z,10.54
2023-01-06T23:04:09.023Z,10.51
2023-01-06T23:06:35.908Z,10.49
2023-01-06T23:09:02.847Z,10.47
2023-01-06T23:11:31.347Z,10.44
2023-01-06T23:13:58.886Z,10.32
2023-01-06T23:16:27.196Z,10.36
2023-01-06T23:18:54.459Z,10.26
2023-01-06T23:21:26.882Z,10.26
2023-01-06T23:23:54.223Z,10.23
2023-01-06T23:26:45.209Z,10.17
2023-01-06T23:29:13.464Z,10.10
2023-01-06T23:31:43.948Z,10.10
2023-01-06T23:34:17.477Z,10.03
2023-01-06T23:36:44.883Z,9.95
2023-01-06T23:39:16.834Z,10.00
2023-01-06T23:41:44.088Z,9.99
2023-01-06T23:44:18.059Z,9.95
2023-01-06T23:46:45.562Z,9.94
2023-01-06T23:49:16.527Z,9.85
2023-01-06T23:51:44.214Z,9.92
2023-01-06T23:54:12.264Z,9.91
2023-01-06T23:56:40.314Z,9.92
2023-01-06T23:59:09.970Z,9.91
